Time;durP1;ratioP1;P1;durP2;ratioP2;P2;SDS_P1;SDS_P2;PMS_P1;PMS_P2;Temp;Humidity;BMP_temperature;BMP_pressure;BME280_temperature;BME280_humidity;BME280_pressure;Samples;Min_cycle;Max_cycle;Signal;HPM_P1;HPM_P2
2023/08/03 00:00:05;;;;;;;2.10;1.30;;;;;;;21.75;54.39;97659.24;223186;186;140866;-63
2023/08/03 00:05:34;;;;;;;3.50;1.80;;;;;;;21.70;54.57;97653.55;223413;182;137500;-69
2023/08/03 00:10:37;;;;;;;4.40;1.60;;;;;;;21.65;55.29;97659.77;223395;182;231945;-68
2023/08/03 00:15:41;;;;;;;3.50;1.70;;;;;;;21.54;55.69;97664.62;223353;178;138765;-69
2023/08/03 00:20:47;;;;;;;3.40;1.60;;;;;;;21.54;55.77;97668.41;223304;182;136821;-67
2023/08/03 00:25:51;;;;;;;3.00;1.70;;;;;;;21.45;56.87;97662.55;223294;182;145621;-68
2023/08/03 00:30:54;;;;;;;3.70;1.80;;;;;;;21.37;57.42;97665.00;223295;182;139040;-73
2023/08/03 00:35:57;;;;;;;3.50;1.40;;;;;;;21.27;57.75;97673.44;223370;182;138140;-67
2023/08/03 00:41:01;;;;;;;2.70;1.60;;;;;;;21.18;58.37;97665.13;223518;182;146283;-64
2023/08/03 00:46:05;;;;;;;2.00;1.60;;;;;;;21.09;58.70;97663.52;223324;182;161792;-65
2023/08/03 00:51:08;;;;;;;6.40;1.80;;;;;;;21.00;58.56;97671.52;223430;183;137551;-72
2023/08/03 00:56:12;;;;;;;4.90;1.60;;;;;;;20.93;58.97;97676.34;223300;182;146561;-65
2023/08/03 01:01:15;;;;;;;2.80;1.70;;;;;;;20.92;59.72;97671.69;223515;182;138709;-66
2023/08/03 01:06:18;;;;;;;4.30;1.80;;;;;;;20.91;60.33;97669.64;223461;182;136688;-71
2023/08/03 01:11:22;;;;;;;3.30;2.00;;;;;;;20.90;61.05;97680.25;223387;182;145785;-70
2023/08/03 01:16:26;;;;;;;2.30;1.60;;;;;;;20.88;61.16;97686.71;223427;182;138925;-72
2023/08/03 01:21:38;;;;;;;3.50;1.80;;;;;;;20.87;61.31;97681.59;223411;183;139015;-63
2023/08/03 01:26:45;;;;;;;4.80;1.90;;;;;;;20.87;61.70;97682.39;223462;182;145969;-68
2023/08/03 01:31:54;;;;;;;3.60;1.50;;;;;;;20.85;62.19;97684.61;223413;183;138629;-68
2023/08/03 01:36:58;;;;;;;4.60;1.70;;;;;;;20.87;62.45;97684.75;223543;182;139157;-68
2023/08/03 01:42:01;;;;;;;2.30;1.70;;;;;;;20.92;62.43;97677.36;223336;182;146342;-63
2023/08/03 01:47:04;;;;;;;10.10;2.20;;;;;;;20.98;62.84;97681.11;223404;183;139800;-63
2023/08/03 01:52:08;;;;;;;8.30;2.40;;;;;;;21.03;62.96;97667.92;223384;183;137593;-70
2023/08/03 01:57:11;;;;;;;12.00;2.70;;;;;;;21.04;63.23;97654.20;223428;183;147585;-68
2023/08/03 02:02:25;;;;;;;10.90;2.90;;;;;;;21.06;63.31;97644.77;223423;182;140753;-66
2023/08/03 02:07:57;;;;;;;11.00;2.70;;;;;;;21.04;63.71;97647.91;223328;182;137789;-65
2023/08/03 02:13:02;;;;;;;9.20;2.80;;;;;;;20.98;63.50;97647.20;223360;182;145783;-68
2023/08/03 02:18:06;;;;;;;10.60;2.70;;;;;;;20.94;63.74;97645.16;223373;182;138969;-68
2023/08/03 02:23:09;;;;;;;11.40;3.10;;;;;;;20.91;64.22;97652.97;223401;182;137008;-67
2023/08/03 02:28:12;;;;;;;5.70;2.40;;;;;;;20.87;64.21;97661.09;223411;179;148422;-69
2023/08/03 02:33:16;;;;;;;7.10;2.80;;;;;;;20.85;64.40;97674.58;223350;183;139467;-65
2023/08/03 02:38:21;;;;;;;;;;;;;;;20.84;64.42;97683.14;223322;183;137748;-64
2023/08/03 02:43:26;;;;;;;8.60;2.60;;;;;;;20.86;64.40;97688.70;223494;182;145593;-70
2023/08/03 02:48:29;;;;;;;6.90;2.70;;;;;;;20.90;64.59;97697.48;223341;182;138717;-67
2023/08/03 02:53:33;;;;;;;7.10;2.50;;;;;;;20.93;64.83;97711.58;223346;182;137149;-68
2023/08/03 02:58:37;;;;;;;8.10;2.60;;;;;;;20.94;64.94;97715.20;223364;183;145732;-66
2023/08/03 03:03:46;;;;;;;10.70;3.00;;;;;;;20.93;64.86;97723.05;223417;182;140276;-66
2023/08/03 03:08:49;;;;;;;8.80;2.50;;;;;;;20.91;65.12;97726.77;223351;183;137534;-66
2023/08/03 03:13:53;;;;;;;8.10;2.70;;;;;;;20.90;65.45;97729.46;223365;183;146222;-66
2023/08/03 03:18:56;;;;;;;4.80;2.30;;;;;;;20.87;65.64;97744.83;223274;182;140522;-66
2023/08/03 03:23:59;;;;;;;6.80;2.70;;;;;;;20.85;65.75;97754.08;223356;182;138870;-66
2023/08/03 03:29:03;;;;;;;6.40;2.40;;;;;;;20.83;65.86;97761.55;223546;182;146265;-62
2023/08/03 03:34:07;;;;;;;4.40;2.30;;;;;;;20.85;65.77;97784.33;223410;183;140057;-64
2023/08/03 03:39:11;;;;;;;5.40;2.20;;;;;;;20.94;65.55;97795.46;223390;183;138121;-65
2023/08/03 03:44:14;;;;;;;4.80;2.30;;;;;;;21.05;65.17;97815.02;223357;182;145591;-63
2023/08/03 03:49:18;;;;;;;5.30;2.00;;;;;;;21.16;63.56;97806.64;223384;182;139165;-62
2023/08/03 03:54:24;;;;;;;6.10;2.20;;;;;;;21.26;62.48;97814.66;223378;182;137539;-62
2023/08/03 03:59:28;;;;;;;4.40;1.90;;;;;;;21.33;61.89;97810.55;223420;179;146437;-64
2023/08/03 04:04:31;;;;;;;4.20;1.60;;;;;;;21.38;61.33;97823.87;223407;179;139029;-63
2023/08/03 04:09:35;;;;;;;4.80;1.60;;;;;;;21.44;60.64;97820.05;223389;183;139553;-65
2023/08/03 04:14:39;;;;;;;3.60;1.70;;;;;;;21.48;60.35;97827.39;223426;182;145979;-68
2023/08/03 04:25:59;;;;;;;2.50;1.60;;;;;;;21.62;60.18;97822.46;220612;193;1676797;-65
2023/08/03 04:31:02;;;;;;;2.90;1.60;;;;;;;21.59;60.45;97819.55;223242;186;139336;-65
2023/08/03 04:36:06;;;;;;;4.20;1.80;;;;;;;21.57;61.21;97809.23;223173;184;143844;-63
2023/08/03 04:41:14;;;;;;;3.00;1.80;;;;;;;21.51;61.44;97809.00;223153;185;139019;-65
2023/08/03 04:46:20;;;;;;;3.40;1.80;;;;;;;21.53;62.11;97825.99;223192;185;136789;-65
2023/08/03 04:51:31;;;;;;;3.90;1.80;;;;;;;21.52;62.34;97840.27;223022;185;144378;-63
2023/08/03 04:56:39;;;;;;;6.60;1.90;;;;;;;21.51;62.99;97846.40;223222;185;138938;-63
2023/08/03 05:01:42;;;;;;;5.00;2.00;;;;;;;21.55;63.47;97848.30;223090;185;137215;-62
2023/08/03 05:06:46;;;;;;;8.20;2.00;;;;;;;21.62;63.55;97849.91;223169;184;145048;-63
2023/08/03 05:11:50;;;;;;;7.70;2.10;;;;;;;21.76;63.85;97836.38;223174;185;139420;-61
2023/08/03 05:16:53;;;;;;;6.60;2.30;;;;;;;21.87;63.84;97826.58;223238;185;138119;-64
2023/08/03 05:21:58;;;;;;;3.80;2.40;;;;;;;21.93;64.04;97818.11;223142;185;145712;-65
2023/08/03 05:27:02;;;;;;;5.40;2.20;;;;;;;21.97;64.20;97807.31;223095;186;138495;-66
2023/08/03 05:32:06;;;;;;;7.30;2.00;;;;;;;22.05;64.49;97811.54;223166;184;136895;-62
2023/08/03 05:37:10;;;;;;;7.60;2.40;;;;;;;22.07;64.23;97829.68;223080;184;146442;-65
2023/08/03 05:42:14;;;;;;;5.80;2.30;;;;;;;22.12;64.35;97843.89;223062;185;140485;-60
2023/08/03 05:47:17;;;;;;;5.70;2.30;;;;;;;22.13;64.41;97848.36;223122;185;136508;-64
2023/08/03 05:52:21;;;;;;;4.70;2.40;;;;;;;22.16;64.43;97851.15;223071;185;147602;-66
2023/08/03 05:57:24;;;;;;;5.70;2.20;;;;;;;22.16;64.51;97851.99;223015;185;138775;-65
2023/08/03 06:02:33;;;;;;;4.20;2.40;;;;;;;22.25;64.49;97855.80;223045;185;137629;-65
2023/08/03 06:07:37;;;;;;;3.80;2.40;;;;;;;22.29;64.16;97857.16;223029;185;146411;-67
2023/08/03 06:12:41;;;;;;;7.60;2.30;;;;;;;22.25;64.03;97850.84;223112;185;139552;-66
2023/08/03 06:17:44;;;;;;;10.20;7.00;;;;;;;22.23;64.17;97845.88;223017;184;136717;-64
2023/08/03 06:22:47;;;;;;;5.20;2.70;;;;;;;22.13;64.31;97842.61;223104;185;145997;-63
2023/08/03 06:27:51;;;;;;;5.20;2.70;;;;;;;22.00;64.80;97835.80;223119;185;139289;-62
2023/08/03 06:32:57;;;;;;;13.50;4.00;;;;;;;21.93;65.25;97849.63;223147;185;139796;-60
2023/08/03 06:38:02;;;;;;;8.10;3.90;;;;;;;22.02;65.58;97879.42;222991;184;145789;-61
2023/08/03 06:43:06;;;;;;;5.80;2.90;;;;;;;22.17;65.59;97893.55;223066;184;139039;-59
2023/08/03 06:48:10;;;;;;;40.60;33.00;;;;;;;22.28;65.47;97893.86;223079;184;137538;-61
2023/08/03 06:53:14;;;;;;;9.20;3.80;;;;;;;22.20;65.49;97904.26;223145;186;145799;-63
2023/08/03 06:58:17;;;;;;;22.50;13.10;;;;;;;22.14;65.81;97907.88;223049;186;141155;-62
2023/08/03 07:03:21;;;;;;;18.20;6.10;;;;;;;22.12;66.20;97914.85;223017;184;136954;-68
2023/08/03 07:08:24;;;;;;;9.90;3.70;;;;;;;22.06;66.31;97920.64;223158;184;146277;-65
2023/08/03 07:13:27;;;;;;;5.60;2.60;;;;;;;22.05;66.64;97914.30;223056;185;140428;-66
2023/08/03 07:18:30;;;;;;;7.50;2.60;;;;;;;22.05;66.72;97917.89;223155;185;138138;-65
2023/08/03 07:23:34;;;;;;;6.00;3.00;;;;;;;22.07;66.82;97928.90;223041;184;145533;-65
2023/08/03 07:28:37;;;;;;;81.10;68.90;;;;;;;22.10;66.90;97929.55;223427;183;139388;-65
2023/08/03 07:33:41;;;;;;;11.20;6.40;;;;;;;22.20;66.81;97938.24;223406;182;137542;-65
2023/08/03 07:38:44;;;;;;;5.60;3.00;;;;;;;22.22;66.54;97957.31;223455;183;146371;-64
2023/08/03 07:43:49;;;;;;;8.40;3.00;;;;;;;22.20;66.78;97981.65;223345;183;139011;-63
2023/08/03 07:48:53;;;;;;;5.70;2.90;;;;;;;22.19;67.60;97994.49;223362;183;136887;-64
2023/08/03 07:53:56;;;;;;;98.10;69.10;;;;;;;22.11;68.33;98015.94;223383;183;146430;-63
2023/08/03 07:59:00;;;;;;;8.60;4.30;;;;;;;22.05;69.71;98035.85;223393;182;140062;-64
2023/08/03 08:04:03;;;;;;;7.20;3.00;;;;;;;21.92;70.60;98046.30;223343;183;141360;-64
2023/08/03 08:09:07;;;;;;;7.80;2.40;;;;;;;21.80;71.20;98056.54;223366;183;145602;-66
2023/08/03 08:14:15;;;;;;;4.10;2.20;;;;;;;21.64;70.87;98057.03;223146;183;138844;-62
2023/08/03 08:19:19;;;;;;;172.40;108.60;;;;;;;21.39;70.13;98055.61;223144;183;137111;-64
2023/08/03 08:24:24;;;;;;;9.20;4.80;;;;;;;21.14;69.70;98055.08;223215;183;146084;-61
2023/08/03 08:29:27;;;;;;;3.90;1.90;;;;;;;20.91;69.30;98055.45;223250;179;141222;-61
2023/08/03 08:34:30;;;;;;;4.60;1.80;;;;;;;20.85;69.60;98059.27;223391;183;138427;-64
2023/08/03 08:39:34;;;;;;;38.20;30.40;;;;;;;20.90;69.79;98068.22;223299;183;146201;-61
2023/08/03 08:44:38;;;;;;;4.30;2.70;;;;;;;20.94;70.05;98065.94;223349;183;139020;-64
2023/08/03 08:49:41;;;;;;;4.90;2.60;;;;;;;20.97;70.45;98061.96;223233;179;137797;-65
2023/08/03 08:54:47;;;;;;;10.20;3.60;;;;;;;21.01;70.92;98087.20;223338;183;146151;-64
2023/08/03 09:00:05;;;;;;;4.50;2.40;;;;;;;21.00;70.55;98096.46;223399;183;139872;-62
2023/08/03 09:05:25;;;;;;;15.70;12.40;;;;;;;21.04;70.95;98093.23;223309;183;138119;-62
2023/08/03 09:10:46;;;;;;;3.20;2.10;;;;;;;21.12;70.07;98099.64;223328;181;146399;-65
2023/08/03 09:15:49;;;;;;;4.00;1.80;;;;;;;20.99;69.76;98104.61;223395;183;138951;-62
2023/08/03 09:21:14;;;;;;;3.40;2.10;;;;;;;20.91;70.11;98105.20;223482;182;139359;-61
2023/08/03 09:26:23;;;;;;;7.50;2.00;;;;;;;20.81;70.05;98084.60;223449;183;145513;-62
2023/08/03 09:31:29;;;;;;;4.90;2.00;;;;;;;20.76;70.36;98059.80;223402;183;138954;-64
2023/08/03 09:36:34;;;;;;;8.70;2.30;;;;;;;20.79;70.43;98054.95;223423;183;138193;-62
2023/08/03 09:41:37;;;;;;;94.30;82.80;;;;;;;20.81;70.26;98061.96;223298;183;145762;-65
2023/08/03 09:46:46;;;;;;;4.10;2.50;;;;;;;20.84;70.46;98047.90;223291;183;139812;-61
2023/08/03 09:51:54;;;;;;;8.10;3.60;;;;;;;20.84;70.13;98039.75;223313;183;137782;-63
2023/08/03 09:57:06;;;;;;;6.60;2.40;;;;;;;20.81;70.49;98040.08;223234;184;148185;-60
2023/08/03 10:02:16;;;;;;;11.50;2.70;;;;;;;20.78;70.60;98070.70;223212;183;142479;-61
2023/08/03 10:07:33;;;;;;;5.50;2.80;;;;;;;20.66;71.25;98061.35;223336;182;136966;-63
2023/08/03 10:12:43;;;;;;;5.60;2.20;;;;;;;20.68;71.97;98056.68;223341;183;145930;-61
2023/08/03 10:17:47;;;;;;;11.50;3.40;;;;;;;20.72;72.23;98039.48;223365;183;139487;-61
2023/08/03 10:23:12;;;;;;;7.40;3.40;;;;;;;20.74;72.18;98016.59;223412;183;137894;-60
2023/08/03 10:28:15;;;;;;;7.00;2.40;;;;;;;20.82;72.52;98027.66;223360;183;147814;-62
2023/08/03 10:33:18;;;;;;;4.20;2.20;;;;;;;20.75;72.09;98055.75;223431;182;140943;-63
2023/08/03 10:38:22;;;;;;;2.50;1.70;;;;;;;20.73;71.90;98033.54;223286;183;137962;-64
2023/08/03 10:43:25;;;;;;;3.20;1.70;;;;;;;20.74;71.26;98025.23;223400;182;145819;-64
2023/08/03 10:48:30;;;;;;;4.40;2.00;;;;;;;20.72;70.58;98057.27;223316;183;138944;-63
2023/08/03 10:53:34;;;;;;;4.60;1.70;;;;;;;20.67;70.86;98062.19;223251;183;137784;-66
2023/08/03 10:58:48;;;;;;;3.50;1.70;;;;;;;20.65;71.29;98060.96;223429;183;145802;-63
2023/08/03 11:03:53;;;;;;;3.60;1.80;;;;;;;20.61;71.80;98064.11;223255;182;138912;-64
2023/08/03 11:08:56;;;;;;;5.40;2.00;;;;;;;20.60;71.71;98072.36;223390;183;138411;-68
2023/08/03 11:14:00;;;;;;;5.60;1.90;;;;;;;20.67;71.80;98067.94;223236;182;146279;-67
2023/08/03 11:19:03;;;;;;;5.70;2.10;;;;;;;20.78;71.85;98068.59;223348;183;139224;-65
2023/08/03 11:24:06;;;;;;;15.00;7.70;;;;;;;20.88;71.29;98068.67;223438;182;138470;-64
2023/08/03 11:29:10;;;;;;;8.40;3.20;;;;;;;20.84;71.25;98073.49;223453;183;145928;-61
2023/08/03 11:34:14;;;;;;;6.20;2.20;;;;;;;20.87;71.37;98070.59;223276;183;139074;-61
2023/08/03 11:39:20;;;;;;;8.20;5.00;;;;;;;20.78;71.59;98086.23;223379;182;136903;-64
2023/08/03 11:44:29;;;;;;;277.60;228.90;;;;;;;20.82;72.29;98079.80;223388;182;146506;-65
2023/08/03 11:49:36;;;;;;;9.70;4.60;;;;;;;20.84;72.31;98077.69;223335;183;138653;-63
2023/08/03 11:54:44;;;;;;;11.10;3.40;;;;;;;20.83;72.24;98089.61;223462;183;136624;-63
2023/08/03 11:59:49;;;;;;;9.40;3.00;;;;;;;20.83;72.71;98085.33;223430;182;145994;-62
2023/08/03 12:04:54;;;;;;;12.30;3.30;;;;;;;20.80;72.66;98080.45;223384;182;141019;-64
2023/08/03 12:10:14;;;;;;;7.10;2.50;;;;;;;20.68;72.46;98089.66;223515;182;137716;-62
2023/08/03 12:15:19;;;;;;;85.60;66.40;;;;;;;20.68;72.64;98084.70;223328;183;146425;-63
2023/08/03 12:20:28;;;;;;;13.80;6.50;;;;;;;20.71;72.52;98079.29;223183;182;139497;-64
2023/08/03 12:25:33;;;;;;;9.90;4.00;;;;;;;20.71;72.50;98087.64;223331;183;136686;-63
2023/08/03 12:30:40;;;;;;;8.10;4.60;;;;;;;20.70;72.83;98109.25;223416;182;145529;-63
2023/08/03 14:30:04;;;;;;;97.30;62.90;;;;;;;19.54;78.62;98137.52;221575;192;689650;-60
2023/08/03 14:35:08;;;;;;;10.80;5.40;;;;;;;19.71;77.15;98121.64;222739;187;138632;-61
2023/08/03 14:40:14;;;;;;;6.10;2.70;;;;;;;20.05;77.02;98110.64;222742;183;143782;-61
2023/08/03 14:45:17;;;;;;;5.90;2.20;;;;;;;20.41;74.58;98123.80;222835;186;140587;-61
2023/08/03 14:50:33;;;;;;;7.70;2.10;;;;;;;20.69;72.14;98148.39;222786;186;140478;-63
2023/08/03 14:55:37;;;;;;;9.30;2.20;;;;;;;20.91;70.77;98146.75;222837;186;143979;-63
2023/08/03 15:01:08;;;;;;;64.00;47.80;;;;;;;21.11;69.98;98137.67;222739;187;138853;-60
2023/08/03 15:06:17;;;;;;;7.50;3.60;;;;;;;21.24;68.16;98137.00;222610;187;139448;-64
2023/08/03 15:11:26;;;;;;;11.10;2.30;;;;;;;21.33;66.95;98146.56;223027;184;144129;-63
2023/08/03 15:16:32;;;;;;;8.20;5.60;;;;;;;21.38;65.55;98151.52;223075;183;139178;-63
2023/08/03 15:21:36;;;;;;;15.80;8.50;;;;;;;21.43;65.52;98129.95;223040;184;137252;-63
2023/08/03 15:26:39;;;;;;;4.80;2.50;;;;;;;21.48;63.76;98134.59;223042;184;145868;-62
2023/08/03 15:31:44;;;;;;;3.80;2.20;;;;;;;21.48;62.19;98152.30;222925;184;140751;-62
2023/08/03 15:36:49;;;;;;;4.20;2.00;;;;;;;21.53;61.08;98158.65;223064;185;136792;-63
2023/08/03 15:41:55;;;;;;;3.20;1.90;;;;;;;21.61;60.46;98153.89;223040;184;146319;-61
2023/08/03 15:47:01;;;;;;;3.40;2.10;;;;;;;21.68;59.98;98143.41;222928;185;140005;-60
2023/08/03 15:52:26;;;;;;;13.60;8.30;;;;;;;21.75;59.83;98125.23;223021;184;136509;-59
2023/08/03 15:57:48;;;;;;;3.90;2.70;;;;;;;21.75;58.64;98128.45;223031;184;146476;-62
2023/08/03 16:02:52;;;;;;;3.00;1.80;;;;;;;21.77;58.61;98121.93;222975;184;139567;-60
2023/08/03 16:07:56;;;;;;;3.10;1.80;;;;;;;21.76;57.90;98146.72;222946;184;138499;-61
2023/08/03 16:13:03;;;;;;;4.10;2.10;;;;;;;21.72;57.69;98154.59;223024;184;145515;-61
2023/08/03 16:18:08;;;;;;;5.20;1.90;;;;;;;21.71;58.03;98149.20;222953;186;149167;-61
2023/08/03 16:23:11;;;;;;;5.00;2.00;;;;;;;21.73;57.76;98153.42;222842;185;137904;-60
2023/08/03 16:28:14;;;;;;;6.00;2.30;;;;;;;21.72;57.09;98160.38;223011;184;146439;-60
2023/08/03 16:33:18;;;;;;;4.30;2.00;;;;;;;21.69;57.02;98162.08;222872;184;139221;-60
2023/08/03 16:38:28;;;;;;;7.20;1.90;;;;;;;21.69;57.03;98158.29;223040;184;138367;-61
2023/08/03 16:43:31;;;;;;;4.40;2.00;;;;;;;21.70;57.01;98130.11;222955;183;145837;-60
2023/08/03 16:48:34;;;;;;;5.80;2.10;;;;;;;21.68;56.66;98162.20;222991;184;139367;-60
2023/08/03 16:53:43;;;;;;;4.00;2.30;;;;;;;21.62;56.51;98172.66;222979;184;137053;-60
2023/08/03 16:58:46;;;;;;;4.90;2.40;;;;;;;21.61;56.83;98162.14;223092;184;145893;-60
2023/08/03 17:03:49;;;;;;;5.70;2.10;;;;;;;21.62;56.78;98155.19;223039;183;138708;-61
2023/08/03 17:08:53;;;;;;;14.00;8.30;;;;;;;21.63;56.84;98131.52;223031;184;137174;-60
2023/08/03 17:13:56;;;;;;;3.50;2.00;;;;;;;21.64;56.61;98156.73;223036;184;146496;-61
2023/08/03 17:18:59;;;;;;;4.80;2.20;;;;;;;21.63;56.37;98161.32;223089;183;139604;-60
2023/08/03 17:24:02;;;;;;;4.40;2.40;;;;;;;21.67;56.39;98150.80;223058;184;138017;-59
2023/08/03 17:29:06;;;;;;;6.20;2.50;;;;;;;21.71;56.16;98145.48;223125;184;147070;-59
2023/08/03 17:34:17;;;;;;;20.60;16.20;;;;;;;21.73;56.10;98145.09;223020;183;138578;-61
2023/08/03 17:39:20;;;;;;;6.30;2.60;;;;;;;21.74;55.85;98140.11;223198;184;139206;-60
2023/08/03 17:44:24;;;;;;;3.70;2.30;;;;;;;21.73;55.86;98137.59;223056;184;146549;-59
2023/08/03 17:49:27;;;;;;;2.80;1.90;;;;;;;21.68;55.76;98132.54;223392;182;138752;-60
2023/08/03 17:54:34;;;;;;;25.90;22.10;;;;;;;21.68;55.53;98133.99;223335;182;137907;-61
2023/08/03 17:59:38;;;;;;;12.30;7.80;;;;;;;21.68;55.49;98148.48;223313;181;146517;-61
2023/08/03 18:04:41;;;;;;;6.10;2.40;;;;;;;21.69;55.40;98148.13;223282;182;140486;-62
2023/08/03 18:09:45;;;;;;;4.40;2.30;;;;;;;21.72;55.39;98157.95;223125;183;140218;-61
2023/08/03 18:14:48;;;;;;;5.10;2.50;;;;;;;21.72;55.17;98173.91;223129;182;146177;-60
2023/08/03 18:19:53;;;;;;;4.40;2.70;;;;;;;21.71;55.04;98182.49;223171;182;139957;-59
2023/08/03 18:24:56;;;;;;;4.30;2.80;;;;;;;21.70;55.33;98173.06;223105;181;136804;-60
2023/08/03 18:30:00;;;;;;;6.30;3.10;;;;;;;21.74;55.96;98175.23;223208;216;145770;-59
2023/08/03 18:35:03;;;;;;;4.60;2.50;;;;;;;21.80;56.52;98182.69;223160;182;139541;-59
2023/08/03 18:40:14;;;;;;;6.80;3.80;;;;;;;21.85;55.96;98188.46;223161;182;138314;-60
2023/08/03 18:45:21;;;;;;;3.80;2.80;;;;;;;21.91;56.97;98194.42;223251;182;147351;-60
2023/08/03 18:50:24;;;;;;;68.10;60.00;;;;;;;21.93;56.87;98211.21;223052;181;141273;-62
2023/08/03 18:55:27;;;;;;;18.20;15.80;;;;;;;21.83;55.80;98206.60;223185;183;137248;-60
2023/08/03 19:00:30;;;;;;;6.60;3.10;;;;;;;21.68;56.01;98205.65;223400;184;147488;-58
2023/08/03 19:05:37;;;;;;;5.80;4.00;;;;;;;21.57;56.79;98220.16;223235;186;139478;-59
2023/08/03 19:10:40;;;;;;;216.10;174.30;;;;;;;21.61;57.52;98228.75;223147;183;137911;-62
2023/08/03 19:15:43;;;;;;;11.90;8.80;;;;;;;21.59;57.65;98241.63;223231;183;146420;-62
2023/08/03 19:20:48;;;;;;;11.60;7.00;;;;;;;21.52;57.57;98257.27;223176;182;139036;-63
2023/08/03 19:25:54;;;;;;;6.00;3.00;;;;;;;21.43;57.95;98262.42;223102;182;137640;-60
2023/08/03 19:30:58;;;;;;;6.50;2.70;;;;;;;21.31;58.38;98271.08;223172;182;145479;-61
2023/08/03 19:36:02;;;;;;;5.80;2.60;;;;;;;21.20;58.53;98269.58;223213;205;141522;-62
2023/08/03 19:41:06;;;;;;;4.90;2.80;;;;;;;21.11;58.76;98275.30;223194;204;137567;-62
2023/08/03 19:46:29;;;;;;;4.00;2.40;;;;;;;21.03;58.63;98284.67;223235;182;146848;-60
2023/08/03 19:51:34;;;;;;;4.90;2.60;;;;;;;21.00;58.37;98287.96;223075;183;139016;-60
2023/08/03 19:56:42;;;;;;;6.60;2.90;;;;;;;20.98;57.91;98285.50;223215;182;136726;-63
2023/08/03 20:01:49;;;;;;;5.00;2.70;;;;;;;20.94;58.13;98293.00;223175;182;145891;-62
2023/08/03 20:06:55;;;;;;;5.10;2.50;;;;;;;20.87;58.05;98293.42;223214;182;139023;-62
2023/08/03 20:12:00;;;;;;;5.20;2.20;;;;;;;20.80;57.99;98290.42;223197;216;138076;-59
2023/08/03 20:17:04;;;;;;;;;;;;;;;20.74;57.90;98287.52;223303;183;146726;-61
2023/08/03 20:22:11;;;;;;;4.10;2.20;;;;;;;20.70;57.68;98291.96;223239;186;139096;-61
2023/08/03 20:27:14;;;;;;;5.50;2.40;;;;;;;20.69;57.33;98302.73;223075;185;136724;-60
2023/08/03 20:32:17;;;;;;;5.70;2.20;;;;;;;20.70;57.84;98306.94;223099;183;145649;-60
2023/08/03 20:37:21;;;;;;;3.60;2.00;;;;;;;20.64;57.76;98310.51;223236;181;138644;-62
2023/08/03 20:42:24;;;;;;;5.40;2.30;;;;;;;20.61;58.05;98320.47;223195;204;136300;-61
2023/08/03 20:47:30;;;;;;;3.50;2.40;;;;;;;20.61;58.29;98322.47;223248;181;145481;-64
2023/08/03 20:52:36;;;;;;;8.40;2.80;;;;;;;20.52;58.53;98322.39;223137;182;138905;-62
2023/08/03 20:57:39;;;;;;;8.80;2.50;;;;;;;20.47;58.59;98319.09;223131;181;138097;-61
2023/08/03 21:02:42;;;;;;;5.20;2.60;;;;;;;20.42;59.19;98324.35;223254;181;147421;-64
2023/08/03 21:07:46;;;;;;;13.20;2.40;;;;;;;20.37;59.07;98324.04;223160;182;139998;-62
2023/08/03 21:12:49;;;;;;;4.00;2.20;;;;;;;20.36;59.13;98328.41;223230;208;137733;-63
2023/08/03 21:17:52;;;;;;;5.20;2.90;;;;;;;20.35;59.05;98343.08;223266;205;145835;-61
2023/08/03 21:22:56;;;;;;;7.80;3.00;;;;;;;20.32;58.92;98336.45;223178;182;139127;-61
2023/08/03 21:27:59;;;;;;;5.40;2.90;;;;;;;20.35;59.31;98342.16;223203;182;136637;-62
2023/08/03 21:33:02;;;;;;;6.90;3.20;;;;;;;20.37;59.47;98360.14;223238;182;145509;-61
2023/08/03 22:27:06;;;;;;;5.70;2.90;;;;;;;20.06;59.71;98377.99;221455;193;666403;-60
2023/08/03 22:32:10;;;;;;;6.40;2.50;;;;;;;20.01;59.73;98382.63;222663;187;136278;-61
2023/08/03 22:37:13;;;;;;;5.90;2.90;;;;;;;19.98;59.86;98383.22;222665;187;144201;-61
2023/08/03 22:42:17;;;;;;;5.30;2.70;;;;;;;19.93;60.13;98381.05;222714;190;140525;-62
2023/08/03 22:47:20;;;;;;;6.00;2.60;;;;;;;19.92;60.15;98378.45;222707;186;136532;-61
2023/08/03 22:52:23;;;;;;;5.40;2.50;;;;;;;19.93;59.59;98373.56;223079;195;143857;-61
2023/08/03 22:57:26;;;;;;;4.60;2.60;;;;;;;19.94;59.37;98368.05;223076;184;141041;-60
2023/08/03 23:02:29;;;;;;;5.50;2.70;;;;;;;19.94;59.21;98375.63;223099;185;136262;-61
2023/08/03 23:07:35;;;;;;;7.50;2.40;;;;;;;19.91;59.01;98369.78;223181;183;145507;-61
2023/08/03 23:12:39;;;;;;;7.20;2.80;;;;;;;19.88;59.03;98367.77;222265;183;139002;-66
2023/08/03 23:17:43;;;;;;;7.40;2.30;;;;;;;19.86;58.88;98366.71;223401;182;137140;-62
2023/08/03 23:22:47;;;;;;;4.90;2.20;;;;;;;19.83;58.84;98368.98;223425;181;145860;-62
2023/08/03 23:27:50;;;;;;;4.20;2.30;;;;;;;19.82;58.80;98364.12;223282;182;138938;-62
2023/08/03 23:32:53;;;;;;;5.30;2.40;;;;;;;19.81;58.91;98357.21;223243;182;136525;-62
2023/08/03 23:37:56;;;;;;;5.40;2.40;;;;;;;19.80;59.09;98367.70;223262;182;145653;-61
2023/08/03 23:42:59;;;;;;;4.40;2.40;;;;;;;19.79;59.10;98363.73;223290;181;139049;-62
2023/08/03 23:48:03;;;;;;;5.40;2.20;;;;;;;19.77;59.27;98372.06;223297;205;137215;-62
2023/08/03 23:53:06;;;;;;;5.10;2.10;;;;;;;19.74;59.43;98379.55;223275;182;146219;-61
2023/08/03 23:58:09;;;;;;;7.90;2.60;;;;;;;19.72;59.49;98365.65;223169;182;139384;-61
